Terminal Aerodrome Forecast
Issued by NWS

Home | Current Version | Previous Version | Text Only | Print | Product List | Glossary On
Versions: 1 2 3 4 5 6 7 8 9 10 11 12 13 14 15 16
000
FTUS43 KFGF 070520
TAFDVL
TAF
KDVL 070520Z 0706/0806 06005KT P6SM SKC
     FM070700 VRB03KT P6SM SKC
     FM071200 22005KT P6SM FEW250
     FM071800 18009KT P6SM SCT250
      AMD LTD TO CLD VIS AND WIND=

USA.gov is the U.S. government's official web portal to all federal, state and local government web resources and services.